createdAt,value
2022-12-17T00:00:22.031Z,-6.10
2022-12-17T00:03:19.511Z,-6.20
2022-12-17T00:06:04.854Z,-6.00
2022-12-17T00:08:50.425Z,-5.90
2022-12-17T00:11:35.686Z,-5.90
2022-12-17T00:14:21.137Z,-6.10
2022-12-17T00:17:06.578Z,-6.00
2022-12-17T00:19:51.903Z,-6.10
2022-12-17T00:22:37.485Z,-6.20
2022-12-17T00:25:23.136Z,-6.30
2022-12-17T00:28:08.601Z,-6.20
2022-12-17T00:30:54.135Z,-6.10
2022-12-17T00:33:39.644Z,-6.00
2022-12-17T00:36:25.366Z,-6.00
2022-12-17T00:39:10.869Z,-6.10
2022-12-17T00:41:56.240Z,-6.20
2022-12-17T00:44:41.600Z,-6.30
2022-12-17T00:47:27.079Z,-6.30
2022-12-17T00:50:12.465Z,-6.40
2022-12-17T00:52:57.904Z,-6.30
2022-12-17T00:55:43.349Z,-6.30
2022-12-17T00:58:28.746Z,-6.30
2022-12-17T01:01:18.194Z,-6.40
2022-12-17T01:04:03.558Z,-6.60
2022-12-17T01:06:48.853Z,-6.60
2022-12-17T01:09:34.258Z,-6.40
2022-12-17T01:12:19.532Z,-6.40
2022-12-17T01:15:05.152Z,-6.40
2022-12-17T01:17:50.712Z,-6.30
2022-12-17T01:20:36.246Z,-6.30
2022-12-17T01:23:21.443Z,-6.40
2022-12-17T01:26:14.831Z,-6.60
2022-12-17T01:29:00.643Z,-6.70
2022-12-17T01:31:46.471Z,-6.80
2022-12-17T01:34:31.939Z,-6.80
2022-12-17T01:37:17.228Z,-6.80
2022-12-17T01:40:02.740Z,-6.90
2022-12-17T01:42:59.698Z,-7.00
2022-12-17T01:45:51.814Z,-6.90
2022-12-17T01:48:37.298Z,-6.90
2022-12-17T01:51:23.352Z,-7.00
2022-12-17T01:54:11.292Z,-6.90
2022-12-17T01:56:59.527Z,-6.80
2022-12-17T02:00:12.452Z,-6.70
2022-12-17T02:02:57.856Z,-6.70
2022-12-17T02:05:59.960Z,-6.80
2022-12-17T02:09:08.187Z,-6.80
2022-12-17T02:12:21.479Z,-6.90
2022-12-17T02:15:10.996Z,-6.90
2022-12-17T02:18:03.632Z,-7.00
2022-12-17T02:21:08.110Z,-6.90
2022-12-17T02:24:14.701Z,-6.80
2022-12-17T02:27:03.571Z,-6.70
2022-12-17T02:29:53.559Z,-7.00
2022-12-17T02:32:43.931Z,-7.20
2022-12-17T02:35:38.422Z,-7.20
2022-12-17T02:38:39.944Z,-7.30
2022-12-17T02:41:26.558Z,-7.20
2022-12-17T02:44:13.436Z,-7.00
2022-12-17T02:47:00.383Z,-7.00
2022-12-17T02:49:45.957Z,-7.10
2022-12-17T02:52:35.175Z,-7.30
2022-12-17T02:55:20.950Z,-7.50
2022-12-17T02:58:06.388Z,-7.50
2022-12-17T03:00:51.853Z,-7.50
2022-12-17T03:03:37.540Z,-7.40
2022-12-17T03:06:23.234Z,-7.50
2022-12-17T03:09:08.758Z,-7.50
2022-12-17T03:11:54.276Z,-7.40
2022-12-17T03:14:39.725Z,-7.10
2022-12-17T03:17:25.230Z,-7.10
2022-12-17T03:20:10.585Z,-7.00
2022-12-17T03:22:56.213Z,-7.00
2022-12-17T03:25:41.919Z,-7.00
2022-12-17T03:28:30.161Z,-7.00
2022-12-17T03:31:19.206Z,-7.20
2022-12-17T03:34:05.055Z,-7.10
2022-12-17T03:36:50.655Z,-7.10
2022-12-17T03:39:36.164Z,-7.00
2022-12-17T03:42:21.631Z,-7.00
2022-12-17T03:45:07.056Z,-6.60
2022-12-17T03:47:52.334Z,-7.00
2022-12-17T03:50:37.835Z,-7.30
2022-12-17T03:53:23.209Z,-7.40
2022-12-17T03:56:08.797Z,-7.30
2022-12-17T03:58:53.845Z,-7.20
2022-12-17T04:01:39.493Z,-7.20
2022-12-17T04:04:24.567Z,-7.20
2022-12-17T04:07:10.086Z,-7.20
2022-12-17T04:09:55.641Z,-7.20
2022-12-17T04:12:41.187Z,-7.20
2022-12-17T04:15:26.594Z,-7.20
2022-12-17T04:18:11.942Z,-7.20
2022-12-17T04:20:57.436Z,-7.20
2022-12-17T04:23:42.718Z,-7.10
2022-12-17T04:26:28.111Z,-7.10
2022-12-17T04:29:13.631Z,-7.20
2022-12-17T04:31:58.781Z,-7.30
2022-12-17T04:34:44.391Z,-7.20
2022-12-17T04:37:29.992Z,-7.20
2022-12-17T04:40:15.226Z,-7.20
2022-12-17T04:43:00.614Z,-7.10
2022-12-17T04:45:46.130Z,-7.10
2022-12-17T04:48:31.617Z,-7.00
2022-12-17T04:51:17.186Z,-6.90
2022-12-17T04:54:02.763Z,-6.80
2022-12-17T04:56:48.281Z,-6.90
2022-12-17T04:59:33.472Z,-7.00
2022-12-17T05:02:18.918Z,-6.80
2022-12-17T05:05:04.301Z,-6.50
2022-12-17T05:07:49.543Z,-7.10
2022-12-17T05:10:35.127Z,-7.20
2022-12-17T05:13:22.227Z,-7.00
2022-12-17T05:16:07.829Z,-7.20
2022-12-17T05:18:53.188Z,-7.00
2022-12-17T05:21:38.719Z,-6.70
2022-12-17T05:24:24.252Z,-6.60
2022-12-17T05:27:09.801Z,-6.60
2022-12-17T05:29:55.370Z,-7.00
2022-12-17T05:32:40.760Z,-7.10
2022-12-17T05:35:26.298Z,-7.50
2022-12-17T05:38:11.586Z,-7.40
2022-12-17T05:40:58.187Z,-7.40
2022-12-17T05:43:43.798Z,-7.50
2022-12-17T05:46:29.201Z,-7.60
2022-12-17T05:49:14.699Z,-7.60
2022-12-17T05:52:00.062Z,-7.80
2022-12-17T05:54:45.428Z,-7.60
2022-12-17T05:57:56.213Z,-7.80
2022-12-17T06:00:41.778Z,-8.10
2022-12-17T06:03:28.260Z,-7.90
2022-12-17T06:06:14.960Z,-7.40
2022-12-17T06:09:01.076Z,-7.20
2022-12-17T06:11:46.403Z,-7.30
2022-12-17T06:14:31.891Z,-7.40
2022-12-17T06:17:17.361Z,-7.30
2022-12-17T06:20:02.856Z,-7.10
2022-12-17T06:22:48.063Z,-7.30
2022-12-17T06:25:33.522Z,-7.20
2022-12-17T06:28:19.505Z,-7.30
2022-12-17T06:31:12.266Z,-7.80
2022-12-17T06:33:58.900Z,-7.80
2022-12-17T06:36:44.383Z,-7.40
2022-12-17T06:39:29.869Z,-7.50
2022-12-17T06:42:15.343Z,-7.70
2022-12-17T06:45:00.816Z,-7.40
2022-12-17T06:47:46.461Z,-7.30
2022-12-17T06:50:31.783Z,-7.10
2022-12-17T06:53:26.357Z,-7.20
2022-12-17T06:56:11.670Z,-7.30
2022-12-17T06:58:57.137Z,-7.20
2022-12-17T07:01:42.724Z,-7.20
2022-12-17T07:04:28.415Z,-7.30
2022-12-17T07:07:13.686Z,-7.40
2022-12-17T07:09:59.692Z,-7.10
2022-12-17T07:12:45.117Z,-7.00
2022-12-17T07:15:31.096Z,-7.20
2022-12-17T07:18:20.652Z,-7.20
2022-12-17T07:21:07.168Z,-7.20
2022-12-17T07:23:52.484Z,-7.10
2022-12-17T07:26:38.036Z,-7.20
2022-12-17T07:29:24.199Z,-7.20
2022-12-17T07:32:09.853Z,-7.20
2022-12-17T07:34:55.376Z,-7.20
2022-12-17T07:37:40.702Z,-7.10
2022-12-17T07:40:26.818Z,-7.00
2022-12-17T07:43:12.680Z,-7.10
2022-12-17T07:45:58.232Z,-7.00
2022-12-17T07:48:43.739Z,-6.90
2022-12-17T07:51:29.158Z,-6.90
2022-12-17T07:54:16.046Z,-6.90
2022-12-17T07:57:01.648Z,-7.00
2022-12-17T07:59:47.109Z,-6.80
2022-12-17T08:02:32.822Z,-6.90
2022-12-17T08:05:18.151Z,-6.90
2022-12-17T08:08:03.687Z,-7.00
2022-12-17T08:10:49.275Z,-6.90
2022-12-17T08:13:35.108Z,-6.80
2022-12-17T08:16:21.088Z,-6.80
2022-12-17T08:19:06.278Z,-6.70
2022-12-17T08:21:51.884Z,-6.80
2022-12-17T08:24:37.857Z,-7.10
2022-12-17T08:27:23.137Z,-6.80
2022-12-17T08:30:08.306Z,-6.90
2022-12-17T08:32:53.644Z,-6.80
2022-12-17T08:35:39.029Z,-6.80
2022-12-17T08:38:24.925Z,-6.90
2022-12-17T08:41:10.402Z,-6.70
2022-12-17T08:44:12.783Z,-6.40
2022-12-17T08:46:58.050Z,-6.50
2022-12-17T08:49:43.440Z,-6.50
2022-12-17T08:52:29.023Z,-6.60
2022-12-17T08:55:14.557Z,-6.60
2022-12-17T08:57:59.940Z,-6.60
2022-12-17T09:00:45.414Z,-6.40
2022-12-17T09:03:31.066Z,-6.50
2022-12-17T09:06:16.389Z,-6.60
2022-12-17T09:09:01.836Z,-6.70
2022-12-17T09:11:47.366Z,-6.70
2022-12-17T09:14:32.786Z,-6.30
2022-12-17T09:17:18.231Z,-6.80
2022-12-17T09:20:03.367Z,-6.80
2022-12-17T09:22:48.971Z,-6.70
2022-12-17T09:25:34.442Z,-6.50
2022-12-17T09:28:20.932Z,-6.50
2022-12-17T09:31:06.661Z,-6.40
2022-12-17T09:33:51.895Z,-6.60
2022-12-17T09:36:37.374Z,-6.50
2022-12-17T09:39:23.061Z,-6.20
2022-12-17T09:42:50.952Z,-6.30
2022-12-17T09:45:59.295Z,-6.80
2022-12-17T09:48:51.715Z,-6.50
2022-12-17T09:51:43.201Z,-6.40
2022-12-17T09:55:00.812Z,-6.50
2022-12-17T09:57:55.047Z,-6.60
2022-12-17T10:00:45.099Z,-6.70
2022-12-17T10:03:40.365Z,-7.00
2022-12-17T10:06:30.647Z,-6.90
2022-12-17T10:09:22.089Z,-6.80
2022-12-17T10:12:07.478Z,-6.80
2022-12-17T10:14:52.970Z,-7.10
2022-12-17T10:17:41.106Z,-6.90
2022-12-17T10:20:42.697Z,-6.80
2022-12-17T10:23:28.188Z,-6.70
2022-12-17T10:26:15.233Z,-6.40
2022-12-17T10:29:20.651Z,-6.40
2022-12-17T10:32:06.304Z,-6.40
2022-12-17T10:34:59.246Z,-6.30
2022-12-17T10:37:50.373Z,-6.20
2022-12-17T10:40:46.938Z,-5.90
2022-12-17T10:43:42.412Z,-5.70
2022-12-17T10:46:27.846Z,-5.60
2022-12-17T10:49:35.124Z,-5.40
2022-12-17T10:52:34.557Z,-5.90
2022-12-17T10:55:24.078Z,-6.20
2022-12-17T10:58:10.901Z,-6.50
2022-12-17T11:00:59.143Z,-6.40
2022-12-17T11:04:06.150Z,-6.30
2022-12-17T11:06:56.166Z,-6.10
2022-12-17T11:09:53.211Z,-6.10
2022-12-17T11:12:43.115Z,-6.00
2022-12-17T11:15:39.345Z,-6.10
2022-12-17T11:18:30.924Z,-6.10
2022-12-17T11:21:30.926Z,-5.90
2022-12-17T11:24:22.543Z,-6.20
2022-12-17T11:27:12.093Z,-6.00
2022-12-17T11:29:57.621Z,-6.40
2022-12-17T11:33:04.842Z,-6.00
2022-12-17T11:36:06.117Z,-5.90
2022-12-17T11:39:15.892Z,-6.00
2022-12-17T11:42:43.100Z,-6.00
2022-12-17T11:45:43.384Z,-6.00
2022-12-17T11:49:06.914Z,-6.00
2022-12-17T11:51:55.676Z,-6.00
2022-12-17T11:54:52.855Z,-6.00
2022-12-17T11:57:43.290Z,-6.20
2022-12-17T12:00:39.437Z,-6.20
2022-12-17T12:03:30.559Z,-5.90
2022-12-17T12:06:21.427Z,-5.50
2022-12-17T12:09:35.893Z,-5.60
2022-12-17T12:12:21.328Z,-5.70
2022-12-17T12:15:31.694Z,-5.90
2022-12-17T12:18:27.981Z,-5.80
2022-12-17T12:21:31.020Z,-5.90
2022-12-17T12:24:36.882Z,-5.70
2022-12-17T12:27:53.045Z,-5.60
2022-12-17T12:30:42.771Z,-5.70
2022-12-17T12:33:48.590Z,-5.60
2022-12-17T12:36:35.644Z,-5.50
2022-12-17T12:39:21.004Z,-5.50
2022-12-17T12:42:25.747Z,-5.50
2022-12-17T12:45:45.336Z,-5.50
2022-12-17T12:48:55.617Z,-5.40
2022-12-17T12:51:47.807Z,-5.10
2022-12-17T12:54:47.977Z,-5.10
2022-12-17T12:57:51.466Z,-5.30
2022-12-17T13:00:56.313Z,-5.30
2022-12-17T13:03:46.555Z,-5.40
2022-12-17T13:06:34.352Z,-5.40
2022-12-17T13:09:20.871Z,-5.20
2022-12-17T13:12:00.816Z,-5.60
2022-12-17T13:14:44.695Z,-5.40
2022-12-17T13:17:17.232Z,-5.50
2022-12-17T13:19:57.354Z,-5.30
2022-12-17T13:22:24.809Z,-5.30
2022-12-17T13:24:54.315Z,-5.70
2022-12-17T13:27:38.623Z,-5.50
2022-12-17T13:30:35.932Z,-5.30
2022-12-17T13:33:21.434Z,-5.20
2022-12-17T13:36:12.443Z,-5.00
2022-12-17T13:39:15.065Z,-5.20
2022-12-17T13:41:41.772Z,-5.60
2022-12-17T13:44:27.544Z,-5.60
2022-12-17T13:46:55.484Z,-5.40
2022-12-17T13:49:26.357Z,-5.30
2022-12-17T13:52:09.612Z,-5.20
2022-12-17T13:54:38.368Z,-5.00
2022-12-17T13:57:16.789Z,-4.90
2022-12-17T13:59:55.286Z,-5.00
2022-12-17T14:02:41.786Z,-4.80
2022-12-17T14:05:25.689Z,-5.20
2022-12-17T14:07:53.374Z,-5.00
2022-12-17T14:10:20.563Z,-5.00
2022-12-17T14:12:47.638Z,-5.10
2022-12-17T14:15:22.018Z,-5.00
2022-12-17T14:17:50.168Z,-5.00
2022-12-17T14:20:37.084Z,-5.00
2022-12-17T14:23:19.303Z,-5.20
2022-12-17T14:25:46.011Z,-5.10
2022-12-17T14:28:21.918Z,-5.20
2022-12-17T14:31:24.322Z,-5.00
2022-12-17T14:33:37.692Z,-5.10
2022-12-17T14:36:16.395Z,-4.90
2022-12-17T14:38:57.581Z,-4.90
2022-12-17T14:41:43.760Z,-5.00
2022-12-17T14:44:22.691Z,-5.10
2022-12-17T14:46:55.425Z,-5.10
2022-12-17T14:49:22.629Z,-4.90
2022-12-17T14:51:50.227Z,-4.80
2022-12-17T14:54:28.930Z,-5.00
2022-12-17T14:56:57.819Z,-4.90
2022-12-17T14:59:32.251Z,-4.70
2022-12-17T15:02:05.542Z,-4.70
2022-12-17T15:04:33.492Z,-5.00
2022-12-17T15:07:00.341Z,-5.30
2022-12-17T15:09:27.195Z,-5.40
2022-12-17T15:11:53.981Z,-5.40
2022-12-17T15:14:20.694Z,-5.60
2022-12-17T15:16:47.555Z,-5.60
2022-12-17T15:19:14.280Z,-5.40
2022-12-17T15:21:41.491Z,-5.30
2022-12-17T15:24:14.751Z,-5.40
2022-12-17T15:26:41.453Z,-5.30
2022-12-17T15:29:08.155Z,-5.20
2022-12-17T15:31:35.866Z,-4.90
2022-12-17T15:34:02.774Z,-4.70
2022-12-17T15:36:31.851Z,-4.60
2022-12-17T15:38:59.222Z,-4.60
2022-12-17T15:41:44.625Z,-5.00
2022-12-17T15:44:11.398Z,-5.00
2022-12-17T15:46:38.315Z,-5.10
2022-12-17T15:49:05.020Z,-5.10
2022-12-17T15:51:31.764Z,-5.30
2022-12-17T15:53:58.452Z,-5.20
2022-12-17T15:56:26.970Z,-4.90
2022-12-17T15:58:56.763Z,-5.00
2022-12-17T16:01:23.600Z,-4.80
2022-12-17T16:03:51.833Z,-4.70
2022-12-17T16:06:18.585Z,-5.20
2022-12-17T16:08:45.261Z,-5.00
2022-12-17T16:11:14.345Z,-5.00
2022-12-17T16:13:41.028Z,-5.10
2022-12-17T16:16:08.854Z,-5.00
2022-12-17T16:18:36.737Z,-5.00
2022-12-17T16:21:05.082Z,-5.10
2022-12-17T16:23:31.951Z,-5.20
2022-12-17T16:26:01.496Z,-5.10
2022-12-17T16:28:29.191Z,-5.10
2022-12-17T16:31:04.564Z,-5.00
2022-12-17T16:33:36.141Z,-4.90
2022-12-17T16:36:03.487Z,-4.90
2022-12-17T16:38:30.235Z,-4.80
2022-12-17T16:40:58.408Z,-4.90
2022-12-17T16:43:25.898Z,-4.70
2022-12-17T16:45:53.813Z,-4.80
2022-12-17T16:48:23.871Z,-4.80
2022-12-17T16:50:51.449Z,-4.70
2022-12-17T16:53:19.052Z,-4.70
2022-12-17T16:55:47.942Z,-4.50
2022-12-17T16:58:16.457Z,-4.90
2022-12-17T17:00:43.610Z,-5.00
2022-12-17T17:03:10.595Z,-5.00
2022-12-17T17:05:40.548Z,-5.10
2022-12-17T17:08:07.314Z,-4.90
2022-12-17T17:10:36.692Z,-4.90
2022-12-17T17:13:03.824Z,-5.00
2022-12-17T17:15:30.470Z,-4.90
2022-12-17T17:18:02.039Z,-5.00
2022-12-17T17:20:32.426Z,-5.00
2022-12-17T17:22:59.637Z,-4.90
2022-12-17T17:25:43.929Z,-4.90
2022-12-17T17:28:13.602Z,-4.60
2022-12-17T17:30:40.306Z,-4.60
2022-12-17T17:33:07.459Z,-4.90
2022-12-17T17:35:34.135Z,-5.00
2022-12-17T17:38:01.030Z,-4.90
2022-12-17T17:40:27.695Z,-4.90
2022-12-17T17:42:54.455Z,-4.80
2022-12-17T17:45:21.188Z,-4.90
2022-12-17T17:47:47.940Z,-5.00
2022-12-17T17:50:14.686Z,-4.80
2022-12-17T17:52:41.426Z,-4.80
2022-12-17T17:55:08.261Z,-4.80
2022-12-17T17:57:34.984Z,-4.80
2022-12-17T18:00:02.669Z,-4.90
2022-12-17T18:02:29.432Z,-5.00
2022-12-17T18:04:56.288Z,-5.30
2022-12-17T18:07:25.612Z,-5.10
2022-12-17T18:09:53.459Z,-5.10
2022-12-17T18:12:55.833Z,-4.90
2022-12-17T18:15:22.514Z,-5.00
2022-12-17T18:17:52.105Z,-4.90
2022-12-17T18:20:19.338Z,-4.90
2022-12-17T18:22:46.934Z,-5.10
2022-12-17T18:25:14.513Z,-4.90
2022-12-17T18:27:41.265Z,-4.90
2022-12-17T18:30:08.560Z,-5.00
2022-12-17T18:32:35.321Z,-5.10
2022-12-17T18:35:02.178Z,-5.20
2022-12-17T18:37:28.943Z,-5.00
2022-12-17T18:39:55.647Z,-5.00
2022-12-17T18:42:40.970Z,-4.90
2022-12-17T18:45:08.043Z,-4.80
2022-12-17T18:47:34.749Z,-4.90
2022-12-17T18:50:01.457Z,-4.80
2022-12-17T18:52:28.346Z,-4.80
2022-12-17T18:54:55.014Z,-5.00
2022-12-17T18:57:21.706Z,-5.00
2022-12-17T18:59:49.215Z,-4.80
2022-12-17T19:02:16.111Z,-4.80
2022-12-17T19:04:42.916Z,-4.60
2022-12-17T19:07:09.959Z,-4.60
2022-12-17T19:09:37.021Z,-4.60
2022-12-17T19:12:05.759Z,-4.50
2022-12-17T19:14:33.468Z,-4.60
2022-12-17T19:17:00.578Z,-4.80
2022-12-17T19:19:27.492Z,-4.70
2022-12-17T19:21:55.234Z,-4.90
2022-12-17T19:24:22.966Z,-4.90
2022-12-17T19:26:50.487Z,-4.60
2022-12-17T19:29:18.898Z,-4.50
2022-12-17T19:31:46.989Z,-4.60
2022-12-17T19:34:16.508Z,-4.30
2022-12-17T19:36:43.757Z,-4.40
2022-12-17T19:39:16.495Z,-4.60
2022-12-17T19:41:43.289Z,-4.70
2022-12-17T19:44:15.216Z,-4.80
2022-12-17T19:46:42.706Z,-4.70
2022-12-17T19:49:12.302Z,-4.60
2022-12-17T19:51:42.825Z,-4.70
2022-12-17T19:54:12.071Z,-4.50
2022-12-17T19:56:38.794Z,-4.80
2022-12-17T19:59:08.038Z,-4.80
2022-12-17T20:01:37.363Z,-4.80
2022-12-17T20:04:05.545Z,-4.80
2022-12-17T20:06:34.293Z,-4.90
2022-12-17T20:09:03.143Z,-4.90
2022-12-17T20:11:36.140Z,-4.90
2022-12-17T20:14:11.955Z,-5.00
2022-12-17T20:16:41.206Z,-4.80
2022-12-17T20:19:11.727Z,-5.10
2022-12-17T20:21:38.907Z,-5.20
2022-12-17T20:24:05.967Z,-5.20
2022-12-17T20:26:33.401Z,-5.00
2022-12-17T20:29:00.621Z,-4.90
2022-12-17T20:31:27.771Z,-4.90
2022-12-17T20:33:54.757Z,-4.90
2022-12-17T20:36:22.302Z,-4.70
2022-12-17T20:38:49.355Z,-4.50
2022-12-17T20:41:19.184Z,-4.60
2022-12-17T20:43:45.889Z,-4.60
2022-12-17T20:46:13.628Z,-4.60
2022-12-17T20:48:42.738Z,-4.60
2022-12-17T20:51:12.223Z,-4.70
2022-12-17T20:53:39.802Z,-4.70
2022-12-17T20:56:10.780Z,-4.70
2022-12-17T20:58:38.583Z,-4.80
2022-12-17T21:01:21.250Z,-4.70
2022-12-17T21:03:49.998Z,-4.80
2022-12-17T21:06:19.587Z,-4.60
2022-12-17T21:08:51.526Z,-4.80
2022-12-17T21:11:20.745Z,-4.80
2022-12-17T21:13:47.634Z,-4.70
2022-12-17T21:16:17.163Z,-4.70
2022-12-17T21:18:44.598Z,-4.70
2022-12-17T21:21:18.357Z,-5.10
2022-12-17T21:23:46.717Z,-4.90
2022-12-17T21:26:16.279Z,-4.80
2022-12-17T21:28:47.760Z,-4.70
2022-12-17T21:31:16.894Z,-4.80
2022-12-17T21:33:44.623Z,-4.90
2022-12-17T21:36:11.799Z,-5.00
2022-12-17T21:38:38.947Z,-5.00
2022-12-17T21:41:10.022Z,-4.90
2022-12-17T21:43:37.988Z,-4.70
2022-12-17T21:46:05.830Z,-4.70
2022-12-17T21:48:38.083Z,-4.90
2022-12-17T21:51:09.876Z,-4.90
2022-12-17T21:53:41.846Z,-4.80
2022-12-17T21:56:11.755Z,-4.60
2022-12-17T21:58:39.424Z,-4.40
2022-12-17T22:01:18.955Z,-4.30
2022-12-17T22:03:53.667Z,-4.60
2022-12-17T22:06:27.036Z,-4.70
2022-12-17T22:09:01.265Z,-4.50
2022-12-17T22:11:30.578Z,-5.10
2022-12-17T22:14:08.607Z,-5.00
2022-12-17T22:16:47.090Z,-4.90
2022-12-17T22:19:22.533Z,-4.90
2022-12-17T22:21:51.464Z,-4.80
2022-12-17T22:24:24.178Z,-4.60
2022-12-17T22:26:50.879Z,-4.80
2022-12-17T22:29:37.559Z,-5.00
2022-12-17T22:32:24.843Z,-5.20
2022-12-17T22:36:10.670Z,-5.00
2022-12-17T22:40:20.643Z,-5.00
2022-12-17T22:44:33.412Z,-5.00
2022-12-17T22:44:45.404Z,-4.80
2022-12-17T22:46:17.738Z,-4.70
2022-12-17T22:48:44.814Z,-4.90
2022-12-17T22:51:19.939Z,-4.90
2022-12-17T22:53:51.269Z,-5.10
2022-12-17T22:56:35.155Z,-5.20
2022-12-17T22:59:06.455Z,-5.50
2022-12-17T23:01:33.647Z,-5.60
2022-12-17T23:04:01.809Z,-5.50
2022-12-17T23:06:29.070Z,-5.30
2022-12-17T23:08:56.568Z,-5.40
2022-12-17T23:11:25.845Z,-5.30
2022-12-17T23:13:53.646Z,-5.20
2022-12-17T23:16:20.479Z,-5.10
2022-12-17T23:18:48.809Z,-5.10
2022-12-17T23:21:19.214Z,-5.00
2022-12-17T23:23:46.387Z,-5.10
2022-12-17T23:26:18.792Z,-5.30
2022-12-17T23:28:46.421Z,-5.50
2022-12-17T23:31:20.755Z,-5.70
2022-12-17T23:33:47.745Z,-5.50
2022-12-17T23:36:17.454Z,-5.60
2022-12-17T23:38:44.258Z,-5.40
2022-12-17T23:41:13.563Z,-5.10
2022-12-17T23:43:40.878Z,-5.00
2022-12-17T23:46:08.861Z,-4.90
2022-12-17T23:48:40.761Z,-5.00
2022-12-17T23:51:13.278Z,-5.30
2022-12-17T23:53:40.345Z,-5.00
2022-12-17T23:56:08.673Z,-5.00
2022-12-17T23:58:36.868Z,-5.20
